Portada
METAR-TAF:

METAR-TAF

Aeroports :

Ambato, Equador

latitud: 01-12-43S, longitud: 078-34-28W, altitud: 2591 m

Observació

L'informe es va fer fa 8 hores i 16 minuts, a les 19:00 UTC
Vent 10 kt del Sud-Oest
Temperatura 17°C
Humitat 59%
Pressió 1029 hPa
Visibilitat 10 km o més
Cel ennuvolat a una alçada de 1500 ft
Cel ennuvolat a una alçada de 10000 ft

METAR: SEAM 181900Z 22010KT 9999 BKN015 BKN100 17/09 Q1029

Hora: 22:16 (03:16 UTC)


TAF: manca

Observacions i pronòstics meteorològics de més de 4000 aeroports (METAR i TAF).

Les estacions disponibles són els punts grocs i vermells al mapa.

Posi el ratolí al punt desitjat per veure el nom de l'estació.

Feu clic per veure les observacions i els pronòstics meteorològics.

Per canviar el mapa: feu clic els botons verds amb una creu de color negre per apropar; al botó verd amb un guió per allunyar la imatge; o en les fletxes verdes per a mapes adjacents.


METAR-TAF: